sensor_id;sensor_type;location;lat;lon;timestamp;pressure;altitude;pressure_sealevel;temperature;humidity
59073;BME280;44859;51.934;15.554;2023-02-19T00:01:54;99510.47;;;3.67;100.00
59073;BME280;44859;51.934;15.554;2023-02-19T00:04:29;99514.27;;;3.68;100.00
59073;BME280;44859;51.934;15.554;2023-02-19T00:07:24;99513.71;;;3.69;100.00
59073;BME280;44859;51.934;15.554;2023-02-19T00:09:59;99509.67;;;3.70;100.00
59073;BME280;44859;51.934;15.554;2023-02-19T00:13:00;99501.32;;;3.71;100.00
59073;BME280;44859;51.934;15.554;2023-02-19T00:15:44;99496.61;;;3.72;100.00
59073;BME280;44859;51.934;15.554;2023-02-19T00:18:40;99496.29;;;3.71;100.00
59073;BME280;44859;51.934;15.554;2023-02-19T00:22:17;99497.17;;;3.70;100.00
59073;BME280;44859;51.934;15.554;2023-02-19T00:25:55;99491.68;;;3.68;100.00
59073;BME280;44859;51.934;15.554;2023-02-19T00:35:50;99487.50;;;3.62;100.00
59073;BME280;44859;51.934;15.554;2023-02-19T00:39:10;99483.73;;;3.59;100.00
59073;BME280;44859;51.934;15.554;2023-02-19T00:42:41;99486.95;;;3.56;100.00
59073;BME280;44859;51.934;15.554;2023-02-19T00:45:59;99485.58;;;3.55;100.00
59073;BME280;44859;51.934;15.554;2023-02-19T00:52:41;99482.31;;;3.53;100.00
59073;BME280;44859;51.934;15.554;2023-02-19T00:55:53;99486.50;;;3.53;100.00
59073;BME280;44859;51.934;15.554;2023-02-19T01:02:30;99480.80;;;3.52;100.00
59073;BME280;44859;51.934;15.554;2023-02-19T01:09:30;99481.55;;;3.50;100.00
59073;BME280;44859;51.934;15.554;2023-02-19T01:12:19;99477.60;;;3.48;100.00
59073;BME280;44859;51.934;15.554;2023-02-19T01:15:38;99474.99;;;3.48;100.00
59073;BME280;44859;51.934;15.554;2023-02-19T01:22:19;99465.48;;;3.47;100.00
59073;BME280;44859;51.934;15.554;2023-02-19T01:25:46;99464.05;;;3.48;100.00
59073;BME280;44859;51.934;15.554;2023-02-19T01:28:31;99461.11;;;3.48;100.00
59073;BME280;44859;51.934;15.554;2023-02-19T01:32:26;99459.17;;;3.49;100.00
59073;BME280;44859;51.934;15.554;2023-02-19T01:35:19;99454.85;;;3.48;100.00
59073;BME280;44859;51.934;15.554;2023-02-19T01:41:47;99450.04;;;3.47;100.00
59073;BME280;44859;51.934;15.554;2023-02-19T01:50:46;99437.05;;;3.45;100.00
59073;BME280;44859;51.934;15.554;2023-02-19T01:56:29;99428.94;;;3.44;100.00
59073;BME280;44859;51.934;15.554;2023-02-19T01:59:05;99426.37;;;3.41;100.00
59073;BME280;44859;51.934;15.554;2023-02-19T02:02:41;99423.30;;;3.39;100.00
59073;BME280;44859;51.934;15.554;2023-02-19T02:08:55;99420.26;;;3.36;100.00
59073;BME280;44859;51.934;15.554;2023-02-19T02:12:38;99414.77;;;3.34;100.00
59073;BME280;44859;51.934;15.554;2023-02-19T02:31:56;99383.96;;;3.30;100.00
59073;BME280;44859;51.934;15.554;2023-02-19T02:35:08;99374.77;;;3.30;100.00
59073;BME280;44859;51.934;15.554;2023-02-19T02:38:09;99369.02;;;3.30;100.00
59073;BME280;44859;51.934;15.554;2023-02-19T02:40:43;99352.11;;;3.27;100.00
59073;BME280;44859;51.934;15.554;2023-02-19T02:43:44;99344.48;;;3.27;100.00
59073;BME280;44859;51.934;15.554;2023-02-19T02:49:41;99336.52;;;3.25;100.00
59073;BME280;44859;51.934;15.554;2023-02-19T02:52:46;99342.32;;;3.22;100.00
59073;BME280;44859;51.934;15.554;2023-02-19T02:55:51;99341.33;;;3.21;100.00
59073;BME280;44859;51.934;15.554;2023-02-19T02:58:39;99341.05;;;3.18;100.00
59073;BME280;44859;51.934;15.554;2023-02-19T03:01:45;99343.84;;;3.17;100.00
59073;BME280;44859;51.934;15.554;2023-02-19T03:05:14;99351.48;;;3.17;100.00
59073;BME280;44859;51.934;15.554;2023-02-19T03:08:06;99355.36;;;3.15;100.00
59073;BME280;44859;51.934;15.554;2023-02-19T03:11:19;99356.57;;;3.15;100.00
59073;BME280;44859;51.934;15.554;2023-02-19T03:14:44;99352.83;;;3.12;100.00
59073;BME280;44859;51.934;15.554;2023-02-19T03:18:00;99357.32;;;3.13;100.00
59073;BME280;44859;51.934;15.554;2023-02-19T03:21:08;99364.48;;;3.11;100.00
59073;BME280;44859;51.934;15.554;2023-02-19T03:24:07;99358.45;;;3.10;100.00
59073;BME280;44859;51.934;15.554;2023-02-19T03:26:56;99357.21;;;3.10;100.00
59073;BME280;44859;51.934;15.554;2023-02-19T03:29:40;99357.00;;;3.12;100.00
59073;BME280;44859;51.934;15.554;2023-02-19T03:32:28;99351.61;;;3.12;100.00
59073;BME280;44859;51.934;15.554;2023-02-19T03:35:29;99346.92;;;3.13;100.00
59073;BME280;44859;51.934;15.554;2023-02-19T03:38:06;99348.89;;;3.11;100.00
59073;BME280;44859;51.934;15.554;2023-02-19T03:41:14;99356.39;;;3.09;100.00
59073;BME280;44859;51.934;15.554;2023-02-19T03:50:20;99348.62;;;3.00;100.00
59073;BME280;44859;51.934;15.554;2023-02-19T03:53:42;99348.48;;;2.98;100.00
59073;BME280;44859;51.934;15.554;2023-02-19T04:01:47;99352.80;;;2.93;100.00
59073;BME280;44859;51.934;15.554;2023-02-19T04:04:38;99355.08;;;2.91;100.00
59073;BME280;44859;51.934;15.554;2023-02-19T04:07:25;99351.98;;;2.90;100.00
59073;BME280;44859;51.934;15.554;2023-02-19T04:13:40;99356.13;;;2.91;100.00
59073;BME280;44859;51.934;15.554;2023-02-19T04:16:27;99359.80;;;2.90;100.00
59073;BME280;44859;51.934;15.554;2023-02-19T04:19:27;99362.27;;;2.88;100.00
59073;BME280;44859;51.934;15.554;2023-02-19T04:22:11;99360.20;;;2.87;100.00
59073;BME280;44859;51.934;15.554;2023-02-19T04:24:57;99365.51;;;2.83;100.00
59073;BME280;44859;51.934;15.554;2023-02-19T04:27:58;99360.73;;;2.79;100.00
59073;BME280;44859;51.934;15.554;2023-02-19T04:33:55;99363.27;;;2.75;100.00
59073;BME280;44859;51.934;15.554;2023-02-19T04:36:28;99364.02;;;2.73;100.00
59073;BME280;44859;51.934;15.554;2023-02-19T04:39:03;99364.81;;;2.68;100.00
59073;BME280;44859;51.934;15.554;2023-02-19T04:42:03;99367.16;;;2.65;100.00
59073;BME280;44859;51.934;15.554;2023-02-19T04:44:56;99371.68;;;2.64;100.00
59073;BME280;44859;51.934;15.554;2023-02-19T04:47:40;99372.69;;;2.58;100.00
59073;BME280;44859;51.934;15.554;2023-02-19T04:54:04;99369.14;;;2.54;100.00
59073;BME280;44859;51.934;15.554;2023-02-19T04:56:56;99370.75;;;2.51;100.00
59073;BME280;44859;51.934;15.554;2023-02-19T04:59:59;99368.30;;;2.45;100.00
59073;BME280;44859;51.934;15.554;2023-02-19T05:02:54;99362.77;;;2.44;100.00
59073;BME280;44859;51.934;15.554;2023-02-19T05:06:24;99359.79;;;2.38;100.00
59073;BME280;44859;51.934;15.554;2023-02-19T05:09:19;99360.06;;;2.33;100.00
59073;BME280;44859;51.934;15.554;2023-02-19T05:11:58;99361.13;;;2.32;100.00
59073;BME280;44859;51.934;15.554;2023-02-19T05:14:32;99365.36;;;2.29;100.00
59073;BME280;44859;51.934;15.554;2023-02-19T05:17:04;99363.19;;;2.25;100.00
59073;BME280;44859;51.934;15.554;2023-02-19T05:19:36;99365.52;;;2.21;100.00
59073;BME280;44859;51.934;15.554;2023-02-19T05:22:05;99365.37;;;2.20;100.00
59073;BME280;44859;51.934;15.554;2023-02-19T05:24:38;99367.13;;;2.19;100.00
59073;BME280;44859;51.934;15.554;2023-02-19T05:27:21;99366.22;;;2.21;100.00
59073;BME280;44859;51.934;15.554;2023-02-19T05:30:09;99363.95;;;2.21;100.00
59073;BME280;44859;51.934;15.554;2023-02-19T05:33:02;99361.23;;;2.19;100.00
59073;BME280;44859;51.934;15.554;2023-02-19T05:36:07;99369.15;;;2.13;100.00
59073;BME280;44859;51.934;15.554;2023-02-19T05:39:05;99366.91;;;2.12;100.00
59073;BME280;44859;51.934;15.554;2023-02-19T05:41:34;99367.11;;;2.11;100.00
59073;BME280;44859;51.934;15.554;2023-02-19T05:44:10;99366.48;;;2.08;100.00
59073;BME280;44859;51.934;15.554;2023-02-19T05:46:41;99366.75;;;2.04;100.00
59073;BME280;44859;51.934;15.554;2023-02-19T05:49:12;99374.09;;;2.01;100.00
59073;BME280;44859;51.934;15.554;2023-02-19T05:51:51;99378.17;;;1.96;100.00
59073;BME280;44859;51.934;15.554;2023-02-19T05:54:36;99381.52;;;1.93;100.00
59073;BME280;44859;51.934;15.554;2023-02-19T05:57:24;99385.71;;;1.92;100.00
59073;BME280;44859;51.934;15.554;2023-02-19T06:00:15;99389.33;;;1.92;100.00
59073;BME280;44859;51.934;15.554;2023-02-19T06:02:56;99395.50;;;1.86;100.00
59073;BME280;44859;51.934;15.554;2023-02-19T06:05:42;99400.65;;;1.80;100.00
59073;BME280;44859;51.934;15.554;2023-02-19T06:08:28;99402.43;;;1.77;100.00
59073;BME280;44859;51.934;15.554;2023-02-19T06:11:12;99402.96;;;1.76;100.00
59073;BME280;44859;51.934;15.554;2023-02-19T06:16:39;99410.14;;;1.72;100.00
59073;BME280;44859;51.934;15.554;2023-02-19T06:19:17;99417.78;;;1.70;100.00
59073;BME280;44859;51.934;15.554;2023-02-19T06:21:52;99422.64;;;1.70;100.00
59073;BME280;44859;51.934;15.554;2023-02-19T06:24:24;99426.30;;;1.69;100.00
59073;BME280;44859;51.934;15.554;2023-02-19T06:27:00;99432.89;;;1.68;100.00
59073;BME280;44859;51.934;15.554;2023-02-19T06:30:06;99436.89;;;1.67;100.00
59073;BME280;44859;51.934;15.554;2023-02-19T06:32:53;99438.16;;;1.64;100.00
59073;BME280;44859;51.934;15.554;2023-02-19T06:35:44;99442.14;;;1.63;100.00
59073;BME280;44859;51.934;15.554;2023-02-19T06:38:14;99439.31;;;1.57;100.00
59073;BME280;44859;51.934;15.554;2023-02-19T06:40:52;99440.09;;;1.53;100.00
59073;BME280;44859;51.934;15.554;2023-02-19T06:43:45;99440.20;;;1.47;100.00
59073;BME280;44859;51.934;15.554;2023-02-19T06:46:17;99445.77;;;1.45;100.00
59073;BME280;44859;51.934;15.554;2023-02-19T06:48:50;99451.07;;;1.49;100.00
59073;BME280;44859;51.934;15.554;2023-02-19T06:51:22;99451.54;;;1.52;100.00
59073;BME280;44859;51.934;15.554;2023-02-19T06:54:20;99453.80;;;1.51;100.00
59073;BME280;44859;51.934;15.554;2023-02-19T06:56:55;99461.35;;;1.44;100.00
59073;BME280;44859;51.934;15.554;2023-02-19T06:59:35;99466.20;;;1.44;100.00
59073;BME280;44859;51.934;15.554;2023-02-19T07:02:13;99468.55;;;1.48;100.00
59073;BME280;44859;51.934;15.554;2023-02-19T07:04:49;99472.83;;;1.51;100.00
59073;BME280;44859;51.934;15.554;2023-02-19T07:07:19;99481.80;;;1.42;100.00
59073;BME280;44859;51.934;15.554;2023-02-19T07:09:48;99487.91;;;1.39;100.00
59073;BME280;44859;51.934;15.554;2023-02-19T07:12:17;99499.53;;;1.37;100.00
59073;BME280;44859;51.934;15.554;2023-02-19T07:14:46;99505.44;;;1.36;100.00
59073;BME280;44859;51.934;15.554;2023-02-19T07:17:16;99508.60;;;1.32;100.00
59073;BME280;44859;51.934;15.554;2023-02-19T07:19:58;99503.05;;;1.34;100.00
59073;BME280;44859;51.934;15.554;2023-02-19T07:22:33;99511.03;;;1.32;100.00
59073;BME280;44859;51.934;15.554;2023-02-19T07:25:02;99512.31;;;1.28;100.00
59073;BME280;44859;51.934;15.554;2023-02-19T07:28:02;99517.20;;;1.24;100.00
59073;BME280;44859;51.934;15.554;2023-02-19T07:30:42;99517.16;;;1.27;100.00
59073;BME280;44859;51.934;15.554;2023-02-19T07:33:11;99512.47;;;1.29;100.00
59073;BME280;44859;51.934;15.554;2023-02-19T07:35:48;99505.29;;;1.23;100.00
59073;BME280;44859;51.934;15.554;2023-02-19T07:38:26;99506.06;;;1.18;100.00
59073;BME280;44859;51.934;15.554;2023-02-19T07:41:05;99507.44;;;1.18;100.00
59073;BME280;44859;51.934;15.554;2023-02-19T07:43:47;99513.12;;;1.20;100.00
59073;BME280;44859;51.934;15.554;2023-02-19T07:46:19;99518.83;;;1.20;100.00
59073;BME280;44859;51.934;15.554;2023-02-19T07:48:59;99523.10;;;1.23;100.00
59073;BME280;44859;51.934;15.554;2023-02-19T07:54:49;99527.86;;;1.41;100.00
59073;BME280;44859;51.934;15.554;2023-02-19T07:57:20;99533.27;;;1.38;100.00
59073;BME280;44859;51.934;15.554;2023-02-19T07:59:56;99537.44;;;1.36;100.00
59073;BME280;44859;51.934;15.554;2023-02-19T08:02:27;99539.00;;;1.36;100.00
59073;BME280;44859;51.934;15.554;2023-02-19T08:05:16;99546.88;;;1.41;100.00
59073;BME280;44859;51.934;15.554;2023-02-19T08:07:51;99551.46;;;1.47;100.00
59073;BME280;44859;51.934;15.554;2023-02-19T08:10:28;99559.39;;;1.49;100.00
59073;BME280;44859;51.934;15.554;2023-02-19T08:13:17;99561.45;;;1.51;100.00
59073;BME280;44859;51.934;15.554;2023-02-19T08:19:21;99561.47;;;1.38;100.00
59073;BME280;44859;51.934;15.554;2023-02-19T08:22:00;99566.52;;;1.36;100.00
59073;BME280;44859;51.934;15.554;2023-02-19T08:24:29;99570.98;;;1.38;100.00
59073;BME280;44859;51.934;15.554;2023-02-19T08:27:06;99576.81;;;1.41;100.00
59073;BME280;44859;51.934;15.554;2023-02-19T08:29:41;99582.64;;;1.45;100.00
59073;BME280;44859;51.934;15.554;2023-02-19T08:32:10;99584.37;;;1.46;100.00
59073;BME280;44859;51.934;15.554;2023-02-19T08:34:52;99593.89;;;1.45;100.00
59073;BME280;44859;51.934;15.554;2023-02-19T08:37:30;99597.84;;;1.48;100.00
59073;BME280;44859;51.934;15.554;2023-02-19T08:40:00;99605.98;;;1.48;100.00
59073;BME280;44859;51.934;15.554;2023-02-19T08:42:45;99609.30;;;1.46;100.00
59073;BME280;44859;51.934;15.554;2023-02-19T08:45:21;99611.67;;;1.49;100.00
59073;BME280;44859;51.934;15.554;2023-02-19T08:47:56;99617.09;;;1.57;100.00
59073;BME280;44859;51.934;15.554;2023-02-19T08:50:32;99613.06;;;1.59;100.00
59073;BME280;44859;51.934;15.554;2023-02-19T08:53:05;99623.08;;;1.61;100.00
59073;BME280;44859;51.934;15.554;2023-02-19T08:55:45;99624.33;;;1.70;100.00
59073;BME280;44859;51.934;15.554;2023-02-19T08:58:23;99628.98;;;1.71;100.00
59073;BME280;44859;51.934;15.554;2023-02-19T09:01:13;99641.48;;;1.70;100.00
59073;BME280;44859;51.934;15.554;2023-02-19T09:03:56;99640.33;;;1.76;100.00
59073;BME280;44859;51.934;15.554;2023-02-19T09:06:33;99649.41;;;1.84;100.00
59073;BME280;44859;51.934;15.554;2023-02-19T09:09:05;99654.86;;;1.78;100.00
59073;BME280;44859;51.934;15.554;2023-02-19T09:11:38;99662.04;;;1.72;100.00
59073;BME280;44859;51.934;15.554;2023-02-19T09:14:30;99661.94;;;1.56;100.00
59073;BME280;44859;51.934;15.554;2023-02-19T09:20:02;99680.25;;;1.70;100.00
59073;BME280;44859;51.934;15.554;2023-02-19T09:22:33;99685.78;;;1.83;100.00
59073;BME280;44859;51.934;15.554;2023-02-19T09:25:04;99693.16;;;1.88;100.00
59073;BME280;44859;51.934;15.554;2023-02-19T09:27:54;99695.39;;;1.89;100.00
59073;BME280;44859;51.934;15.554;2023-02-19T09:30:26;99709.08;;;1.76;100.00
59073;BME280;44859;51.934;15.554;2023-02-19T09:32:55;99714.54;;;1.82;100.00
59073;BME280;44859;51.934;15.554;2023-02-19T09:35:26;99716.31;;;1.91;100.00
59073;BME280;44859;51.934;15.554;2023-02-19T09:37:58;99720.90;;;1.97;100.00
59073;BME280;44859;51.934;15.554;2023-02-19T09:40:29;99729.36;;;1.99;100.00
59073;BME280;44859;51.934;15.554;2023-02-19T09:42:57;99731.56;;;2.02;100.00
59073;BME280;44859;51.934;15.554;2023-02-19T09:45:33;99739.48;;;2.06;100.00
59073;BME280;44859;51.934;15.554;2023-02-19T09:48:09;99739.52;;;2.03;100.00
59073;BME280;44859;51.934;15.554;2023-02-19T09:51:05;99744.52;;;2.05;100.00
59073;BME280;44859;51.934;15.554;2023-02-19T09:53:58;99748.98;;;2.09;99.25
59073;BME280;44859;51.934;15.554;2023-02-19T09:56:37;99752.00;;;2.14;99.90
59073;BME280;44859;51.934;15.554;2023-02-19T09:59:32;99757.51;;;2.16;99.85
59073;BME280;44859;51.934;15.554;2023-02-19T10:02:31;99757.27;;;2.22;99.83
59073;BME280;44859;51.934;15.554;2023-02-19T10:05:15;99758.44;;;2.24;99.75
59073;BME280;44859;51.934;15.554;2023-02-19T10:07:50;99760.52;;;2.36;99.50
59073;BME280;44859;51.934;15.554;2023-02-19T10:10:25;99765.67;;;2.39;98.96
59073;BME280;44859;51.934;15.554;2023-02-19T10:13:30;99768.02;;;2.43;98.23
59073;BME280;44859;51.934;15.554;2023-02-19T10:16:10;99762.63;;;2.56;98.08
59073;BME280;44859;51.934;15.554;2023-02-19T10:18:49;99770.61;;;2.65;98.01
59073;BME280;44859;51.934;15.554;2023-02-19T10:21:26;99771.13;;;2.76;97.65
59073;BME280;44859;51.934;15.554;2023-02-19T10:24:06;99776.52;;;2.74;97.02
59073;BME280;44859;51.934;15.554;2023-02-19T10:26:42;99775.23;;;2.70;96.82
59073;BME280;44859;51.934;15.554;2023-02-19T10:29:41;99779.69;;;2.72;96.05
59073;BME280;44859;51.934;15.554;2023-02-19T10:32:23;99790.17;;;2.67;96.17
59073;BME280;44859;51.934;15.554;2023-02-19T10:35:12;99792.09;;;2.67;96.10
59073;BME280;44859;51.934;15.554;2023-02-19T10:37:50;99791.22;;;2.67;96.05
59073;BME280;44859;51.934;15.554;2023-02-19T10:40:38;99792.12;;;2.65;94.65
59073;BME280;44859;51.934;15.554;2023-02-19T10:43:29;99798.26;;;2.62;94.56
59073;BME280;44859;51.934;15.554;2023-02-19T10:46:33;99797.41;;;2.60;94.39
59073;BME280;44859;51.934;15.554;2023-02-19T10:49:37;99801.83;;;2.65;94.69
59073;BME280;44859;51.934;15.554;2023-02-19T10:58:32;99812.88;;;2.58;92.36
59073;BME280;44859;51.934;15.554;2023-02-19T11:04:21;99815.80;;;2.81;92.01
59073;BME280;44859;51.934;15.554;2023-02-19T11:06:57;99811.80;;;2.91;90.28
59073;BME280;44859;51.934;15.554;2023-02-19T11:09:42;99824.35;;;2.97;90.22
59073;BME280;44859;51.934;15.554;2023-02-19T11:12:25;99824.23;;;3.05;89.45
59073;BME280;44859;51.934;15.554;2023-02-19T11:15:22;99825.60;;;3.25;89.05
59073;BME280;44859;51.934;15.554;2023-02-19T11:18:13;99829.89;;;3.38;84.07
59073;BME280;44859;51.934;15.554;2023-02-19T11:20:51;99836.83;;;3.38;82.55
59073;BME280;44859;51.934;15.554;2023-02-19T11:23:36;99840.54;;;3.35;82.94
59073;BME280;44859;51.934;15.554;2023-02-19T11:26:24;99842.95;;;3.36;84.25
59073;BME280;44859;51.934;15.554;2023-02-19T11:29:19;99848.08;;;3.31;83.89
59073;BME280;44859;51.934;15.554;2023-02-19T11:32:26;99848.92;;;3.42;84.56
59073;BME280;44859;51.934;15.554;2023-02-19T11:35:43;99850.73;;;3.75;83.59
59073;BME280;44859;51.934;15.554;2023-02-19T11:39:03;99854.39;;;4.00;82.54
59073;BME280;44859;51.934;15.554;2023-02-19T11:48:11;99863.86;;;3.86;81.35
59073;BME280;44859;51.934;15.554;2023-02-19T11:54:09;99862.41;;;4.15;81.09
59073;BME280;44859;51.934;15.554;2023-02-19T11:57:13;99865.02;;;4.30;81.12
59073;BME280;44859;51.934;15.554;2023-02-19T12:10:02;99881.74;;;4.05;76.09
59073;BME280;44859;51.934;15.554;2023-02-19T12:13:06;99885.51;;;3.90;77.34
59073;BME280;44859;51.934;15.554;2023-02-19T12:29:11;99899.45;;;4.14;74.15
59073;BME280;44859;51.934;15.554;2023-02-19T12:32:17;99906.14;;;4.18;73.38
59073;BME280;44859;51.934;15.554;2023-02-19T12:35:27;99914.20;;;4.15;73.13
59073;BME280;44859;51.934;15.554;2023-02-19T12:38:25;99921.03;;;3.95;72.84
59073;BME280;44859;51.934;15.554;2023-02-19T12:44:16;99932.02;;;3.83;73.39
59073;BME280;44859;51.934;15.554;2023-02-19T12:47:37;99921.92;;;4.20;73.55
59073;BME280;44859;51.934;15.554;2023-02-19T12:55:48;99910.23;;;4.14;72.32
59073;BME280;44859;51.934;15.554;2023-02-19T12:58:27;99911.27;;;4.39;72.81
59073;BME280;44859;51.934;15.554;2023-02-19T13:00:59;99909.50;;;4.87;73.58
59073;BME280;44859;51.934;15.554;2023-02-19T13:03:32;99910.55;;;5.36;72.25
59073;BME280;44859;51.934;15.554;2023-02-19T13:06:45;99909.73;;;5.62;70.17
59073;BME280;44859;51.934;15.554;2023-02-19T13:12:50;99918.61;;;4.92;68.04
59073;BME280;44859;51.934;15.554;2023-02-19T13:15:38;99915.02;;;4.59;67.86
59073;BME280;44859;51.934;15.554;2023-02-19T13:18:17;99912.59;;;4.34;68.87
59073;BME280;44859;51.934;15.554;2023-02-19T13:24:29;99916.40;;;3.92;69.80
59073;BME280;44859;51.934;15.554;2023-02-19T13:31:06;99923.08;;;4.06;69.89
59073;BME280;44859;51.934;15.554;2023-02-19T13:37:22;99943.54;;;3.62;69.72
59073;BME280;44859;51.934;15.554;2023-02-19T13:43:33;99950.80;;;4.01;70.84
59073;BME280;44859;51.934;15.554;2023-02-19T13:46:12;99948.94;;;4.42;70.52
59073;BME280;44859;51.934;15.554;2023-02-19T13:48:46;99957.00;;;4.30;69.95
59073;BME280;44859;51.934;15.554;2023-02-19T13:54:29;99970.45;;;4.01;70.71
59073;BME280;44859;51.934;15.554;2023-02-19T13:57:18;99968.90;;;3.90;69.09
59073;BME280;44859;51.934;15.554;2023-02-19T13:59:56;99975.33;;;3.81;68.34
59073;BME280;44859;51.934;15.554;2023-02-19T14:02:31;99976.27;;;3.76;69.20
59073;BME280;44859;51.934;15.554;2023-02-19T14:05:09;99983.89;;;3.78;69.19
59073;BME280;44859;51.934;15.554;2023-02-19T14:07:51;99975.18;;;4.34;69.02
59073;BME280;44859;51.934;15.554;2023-02-19T14:10:51;99970.55;;;4.80;67.30
59073;BME280;44859;51.934;15.554;2023-02-19T14:16:48;99977.41;;;5.93;65.61
59073;BME280;44859;51.934;15.554;2023-02-19T14:25:49;99979.42;;;5.62;63.80
59073;BME280;44859;51.934;15.554;2023-02-19T14:28:40;99983.80;;;5.74;62.77
59073;BME280;44859;51.934;15.554;2023-02-19T14:31:31;99992.70;;;5.81;62.09
59073;BME280;44859;51.934;15.554;2023-02-19T14:34:22;99993.28;;;5.58;60.73
59073;BME280;44859;51.934;15.554;2023-02-19T14:37:00;99996.36;;;5.31;61.27
59073;BME280;44859;51.934;15.554;2023-02-19T14:39:35;100001.75;;;5.25;61.53
59073;BME280;44859;51.934;15.554;2023-02-19T14:42:15;100007.40;;;5.14;62.17
59073;BME280;44859;51.934;15.554;2023-02-19T14:44:54;100007.61;;;5.04;61.89
59073;BME280;44859;51.934;15.554;2023-02-19T14:47:29;100012.61;;;4.99;61.53
59073;BME280;44859;51.934;15.554;2023-02-19T14:50:06;100014.55;;;4.97;61.98
59073;BME280;44859;51.934;15.554;2023-02-19T14:52:50;100021.44;;;5.09;61.65
59073;BME280;44859;51.934;15.554;2023-02-19T14:55:26;100013.44;;;5.31;61.74
59073;BME280;44859;51.934;15.554;2023-02-19T14:58:12;100016.02;;;5.54;61.98
59073;BME280;44859;51.934;15.554;2023-02-19T15:00:43;100017.84;;;5.58;62.35
59073;BME280;44859;51.934;15.554;2023-02-19T15:03:26;100014.84;;;5.67;62.36
59073;BME280;44859;51.934;15.554;2023-02-19T15:06:04;100021.70;;;5.78;61.80
59073;BME280;44859;51.934;15.554;2023-02-19T15:08:41;100026.96;;;5.11;62.48
59073;BME280;44859;51.934;15.554;2023-02-19T15:11:27;100037.06;;;4.52;63.37
59073;BME280;44859;51.934;15.554;2023-02-19T15:14:05;100035.96;;;4.81;64.53
59073;BME280;44859;51.934;15.554;2023-02-19T15:16:36;100035.30;;;5.42;64.29
59073;BME280;44859;51.934;15.554;2023-02-19T15:19:14;100042.21;;;5.66;63.99
59073;BME280;44859;51.934;15.554;2023-02-19T15:21:47;100051.63;;;5.66;63.73
59073;BME280;44859;51.934;15.554;2023-02-19T15:24:19;100044.95;;;5.53;63.35
59073;BME280;44859;51.934;15.554;2023-02-19T15:26:52;100044.70;;;5.27;62.38
59073;BME280;44859;51.934;15.554;2023-02-19T15:29:26;100053.48;;;5.00;63.40
59073;BME280;44859;51.934;15.554;2023-02-19T15:31:58;100059.64;;;5.05;63.76
59073;BME280;44859;51.934;15.554;2023-02-19T15:34:29;100059.91;;;5.17;64.04
59073;BME280;44859;51.934;15.554;2023-02-19T15:37:04;100058.36;;;5.16;63.84
59073;BME280;44859;51.934;15.554;2023-02-19T15:39:40;100058.27;;;4.78;63.70
59073;BME280;44859;51.934;15.554;2023-02-19T15:42:23;100062.75;;;4.47;64.96
59073;BME280;44859;51.934;15.554;2023-02-19T15:45:25;100071.92;;;4.30;65.46
59073;BME280;44859;51.934;15.554;2023-02-19T15:48:18;100078.33;;;4.13;65.63
59073;BME280;44859;51.934;15.554;2023-02-19T15:51:05;100080.23;;;3.92;65.89
59073;BME280;44859;51.934;15.554;2023-02-19T15:53:48;100082.64;;;3.73;65.73
59073;BME280;44859;51.934;15.554;2023-02-19T15:56:38;100094.79;;;3.64;65.91
59073;BME280;44859;51.934;15.554;2023-02-19T15:59:42;100097.32;;;3.57;65.75
59073;BME280;44859;51.934;15.554;2023-02-19T16:02:29;100103.05;;;3.56;66.32
59073;BME280;44859;51.934;15.554;2023-02-19T16:05:26;100106.08;;;3.52;66.19
59073;BME280;44859;51.934;15.554;2023-02-19T16:08:28;100099.15;;;3.50;66.47
59073;BME280;44859;51.934;15.554;2023-02-19T16:11:06;100096.38;;;3.49;66.57
59073;BME280;44859;51.934;15.554;2023-02-19T16:14:36;100091.95;;;3.44;66.43
59073;BME280;44859;51.934;15.554;2023-02-19T16:21:22;100099.29;;;3.41;66.80
59073;BME280;44859;51.934;15.554;2023-02-19T16:24:27;100107.58;;;3.43;66.68
59073;BME280;44859;51.934;15.554;2023-02-19T16:27:46;100120.81;;;3.41;66.23
59073;BME280;44859;51.934;15.554;2023-02-19T16:30:59;100127.08;;;3.39;66.10
59073;BME280;44859;51.934;15.554;2023-02-19T16:34:14;100130.08;;;3.36;65.63
59073;BME280;44859;51.934;15.554;2023-02-19T16:37:37;100139.85;;;3.33;66.19
59073;BME280;44859;51.934;15.554;2023-02-19T16:41:03;100151.17;;;3.29;66.21
59073;BME280;44859;51.934;15.554;2023-02-19T16:50:16;100153.42;;;3.29;67.11
59073;BME280;44859;51.934;15.554;2023-02-19T16:52:53;100157.90;;;3.19;67.33
59073;BME280;44859;51.934;15.554;2023-02-19T16:55:28;100160.14;;;3.07;67.07
59073;BME280;44859;51.934;15.554;2023-02-19T16:57:58;100167.55;;;2.97;67.47
59073;BME280;44859;51.934;15.554;2023-02-19T17:00:34;100172.31;;;2.89;67.79
59073;BME280;44859;51.934;15.554;2023-02-19T17:03:13;100173.24;;;2.84;67.79
59073;BME280;44859;51.934;15.554;2023-02-19T17:06:07;100185.05;;;2.82;67.87
59073;BME280;44859;51.934;15.554;2023-02-19T17:09:04;100188.00;;;2.82;68.16
59073;BME280;44859;51.934;15.554;2023-02-19T17:11:40;100203.12;;;2.81;68.40
59073;BME280;44859;51.934;15.554;2023-02-19T17:14:10;100214.41;;;2.77;68.45
59073;BME280;44859;51.934;15.554;2023-02-19T17:16:41;100217.96;;;2.69;68.69
59073;BME280;44859;51.934;15.554;2023-02-19T17:19:16;100221.36;;;2.60;69.02
59073;BME280;44859;51.934;15.554;2023-02-19T17:21:50;100219.17;;;2.52;69.13
59073;BME280;44859;51.934;15.554;2023-02-19T17:24:50;100228.07;;;2.45;69.47
59073;BME280;44859;51.934;15.554;2023-02-19T17:27:19;100231.25;;;2.37;69.76
59073;BME280;44859;51.934;15.554;2023-02-19T17:29:47;100235.47;;;2.30;70.29
59073;BME280;44859;51.934;15.554;2023-02-19T17:32:16;100239.14;;;2.26;70.42
59073;BME280;44859;51.934;15.554;2023-02-19T17:34:57;100243.66;;;2.23;70.52
59073;BME280;44859;51.934;15.554;2023-02-19T17:37:58;100239.01;;;2.19;70.85
59073;BME280;44859;51.934;15.554;2023-02-19T17:40:41;100250.27;;;2.22;71.13